Time;durP1;ratioP1;P1;durP2;ratioP2;P2;SDS_P1;SDS_P2;PMS_P1;PMS_P2;Temp;Humidity;BMP_temperature;BMP_pressure;BME280_temperature;BME280_humidity;BME280_pressure;Samples;Min_cycle;Max_cycle;Signal;HPM_P1;HPM_P2
2021/07/16 00:01:38;;;;;;;6.32;2.70;;;;;;;;;;5019457;28;20100;-63
2021/07/16 00:04:04;;;;;;;6.40;2.80;;;;;;;;;;5019328;28;20097;-63
2021/07/16 00:06:29;;;;;;;7.00;2.80;;;;;;;;;;5019103;28;20029;-64
2021/07/16 00:08:56;;;;;;;6.63;2.53;;;;;;;;;;5019060;28;20053;-63
2021/07/16 00:11:22;;;;;;;11.02;4.15;;;;;;;;;;5019413;28;20057;-63
2021/07/16 00:13:49;;;;;;;3.55;2.17;;;;;;;;;;5019394;28;20017;-63
2021/07/16 00:16:14;;;;;;;6.68;2.40;;;;;;;;;;5018900;28;20049;-64
2021/07/16 00:18:40;;;;;;;7.20;2.75;;;;;;;;;;5019202;28;20053;-63
2021/07/16 00:21:07;;;;;;;2.78;2.45;;;;;;;;;;5019092;28;20056;-64
2021/07/16 00:23:33;;;;;;;6.55;2.25;;;;;;;;;;5019390;28;20521;-64
2021/07/16 00:25:59;;;;;;;3.28;2.53;;;;;;;;;;5019352;28;20108;-63
2021/07/16 00:28:25;;;;;;;6.07;2.50;;;;;;;;;;5019018;28;20099;-64
2021/07/16 00:30:51;;;;;;;3.95;2.58;;;;;;;;;;5019103;28;20017;-63
2021/07/16 00:33:17;;;;;;;7.32;2.80;;;;;;;;;;5019230;28;20021;-64
2021/07/16 00:35:43;;;;;;;3.78;2.42;;;;;;;;;;5019204;28;20018;-64
2021/07/16 00:38:09;;;;;;;4.75;2.65;;;;;;;;;;5018829;28;20028;-64
2021/07/16 00:40:36;;;;;;;11.55;3.53;;;;;;;;;;5018821;28;20103;-63
2021/07/16 00:43:02;;;;;;;6.32;3.10;;;;;;;;;;5019010;28;20072;-64
2021/07/16 00:45:28;;;;;;;5.35;3.10;;;;;;;;;;5019026;28;20010;-63
2021/07/16 00:47:54;;;;;;;9.68;3.00;;;;;;;;;;5018963;28;20014;-64
2021/07/16 00:50:27;;;;;;;4.35;3.10;;;;;;;;;;5018836;28;20249;-64
2021/07/16 00:52:55;;;;;;;7.78;3.00;;;;;;;;;;5018817;28;20014;-64
2021/07/16 00:55:22;;;;;;;6.60;2.70;;;;;;;;;;5018746;28;20021;-64
2021/07/16 00:57:48;;;;;;;5.07;2.33;;;;;;;;;;5018794;28;20497;-63
2021/07/16 01:00:14;;;;;;;8.05;3.10;;;;;;;;;;5018844;28;20022;-64
2021/07/16 01:02:41;;;;;;;10.60;3.72;;;;;;;;;;5018724;28;20474;-63
2021/07/16 01:05:07;;;;;;;5.78;3.00;;;;;;;;;;5033696;28;20036;-65
2021/07/16 01:07:33;;;;;;;6.43;3.00;;;;;;;;;;5018556;28;20053;-63
2021/07/16 01:10:00;;;;;;;7.13;4.15;;;;;;;;;;5015266;28;20479;-64
2021/07/16 01:12:26;;;;;;;5.55;3.45;;;;;;;;;;5015533;28;20018;-64
2021/07/16 01:14:53;;;;;;;4.18;3.10;;;;;;;;;;5015500;28;20021;-63
2021/07/16 01:17:19;;;;;;;12.30;3.30;;;;;;;;;;5022725;28;20037;-58
2021/07/16 01:19:50;;;;;;;7.00;2.78;;;;;;;;;;5026362;28;20024;-58
2021/07/16 01:22:16;;;;;;;5.90;2.97;;;;;;;;;;5023497;28;20018;-64
2021/07/16 01:24:42;;;;;;;6.85;3.00;;;;;;;;;;5015741;28;20042;-63
2021/07/16 01:27:08;;;;;;;7.75;2.90;;;;;;;;;;5031091;28;20056;-64
2021/07/16 01:29:35;;;;;;;10.93;3.55;;;;;;;;;;5015706;28;20084;-63
2021/07/16 01:32:02;;;;;;;4.28;2.78;;;;;;;;;;5015678;28;20030;-63
2021/07/16 01:34:28;;;;;;;4.90;3.22;;;;;;;;;;5014886;28;20065;-63
2021/07/16 01:36:54;;;;;;;8.30;3.13;;;;;;;;;;5030378;28;20398;-63
2021/07/16 01:39:20;;;;;;;5.38;3.28;;;;;;;;;;5015225;28;20011;-63
2021/07/16 01:41:46;;;;;;;5.25;3.10;;;;;;;;;;5015114;28;20216;-63
2021/07/16 01:44:13;;;;;;;5.85;2.85;;;;;;;;;;5014931;28;20113;-64
2021/07/16 01:46:38;;;;;;;6.18;2.85;;;;;;;;;;5014971;28;20483;-63
2021/07/16 01:49:05;;;;;;;5.68;2.88;;;;;;;;;;5015142;28;20026;-64
2021/07/16 01:51:31;;;;;;;5.10;2.80;;;;;;;;;;5014893;28;20105;-63
2021/07/16 01:53:58;;;;;;;8.15;3.65;;;;;;;;;;5014857;28;20025;-63
2021/07/16 01:56:24;;;;;;;6.45;3.20;;;;;;;;;;5014591;28;20030;-63
2021/07/16 01:58:51;;;;;;;11.85;3.97;;;;;;;;;;5014861;28;20029;-62
2021/07/16 02:01:17;;;;;;;9.75;3.15;;;;;;;;;;5014958;28;20378;-64
2021/07/16 02:03:43;;;;;;;7.95;3.67;;;;;;;;;;5014310;28;20018;-64
2021/07/16 02:06:09;;;;;;;6.30;3.90;;;;;;;;;;5014806;28;20033;-64
2021/07/16 02:08:36;;;;;;;4.75;3.28;;;;;;;;;;5014140;28;20058;-64
2021/07/16 02:11:01;;;;;;;4.40;3.22;;;;;;;;;;5014666;28;20410;-63
2021/07/16 02:13:28;;;;;;;6.38;3.28;;;;;;;;;;5014539;28;20018;-63
2021/07/16 02:15:54;;;;;;;4.85;3.35;;;;;;;;;;5014655;28;20029;-63
2021/07/16 02:18:21;;;;;;;7.72;3.75;;;;;;;;;;5014113;28;20060;-64
2021/07/16 02:20:47;;;;;;;7.63;4.25;;;;;;;;;;5013523;28;20065;-64
2021/07/16 02:23:15;;;;;;;8.77;3.80;;;;;;;;;;5014247;28;20018;-64
2021/07/16 02:25:41;;;;;;;5.95;3.58;;;;;;;;;;5029551;28;20113;-63
2021/07/16 02:28:10;;;;;;;6.47;3.85;;;;;;;;;;5014176;28;20466;-64
2021/07/16 02:30:36;;;;;;;6.35;3.47;;;;;;;;;;5014024;28;20028;-64
2021/07/16 02:33:02;;;;;;;7.53;3.70;;;;;;;;;;5013814;28;20537;-63
2021/07/16 02:35:29;;;;;;;11.35;4.43;;;;;;;;;;5029458;28;20460;-64
2021/07/16 02:37:56;;;;;;;9.38;4.78;;;;;;;;;;5012796;28;20692;-63
2021/07/16 02:40:22;;;;;;;6.65;3.47;;;;;;;;;;5013799;28;20021;-64
2021/07/16 02:42:48;;;;;;;9.88;3.58;;;;;;;;;;5013970;28;20019;-64
2021/07/16 02:45:16;;;;;;;6.57;3.50;;;;;;;;;;5012615;28;20021;-64
2021/07/16 02:47:43;;;;;;;8.10;3.67;;;;;;;;;;5013953;28;20040;-64
2021/07/16 02:50:11;;;;;;;6.70;4.13;;;;;;;;;;5013654;28;20021;-64
2021/07/16 02:52:37;;;;;;;6.03;3.40;;;;;;;;;;5013577;28;20021;-63
2021/07/16 02:55:03;;;;;;;4.47;3.45;;;;;;;;;;5013724;28;20018;-63
2021/07/16 02:57:30;;;;;;;4.25;3.17;;;;;;;;;;5013625;28;20022;-63
2021/07/16 02:59:56;;;;;;;6.55;3.45;;;;;;;;;;5013600;28;20490;-64
2021/07/16 03:02:22;;;;;;;4.68;3.60;;;;;;;;;;5013199;28;20028;-63
2021/07/16 03:04:49;;;;;;;7.30;3.97;;;;;;;;;;5013560;28;20097;-63
2021/07/16 03:07:15;;;;;;;5.75;3.67;;;;;;;;;;5012993;28;20108;-63
2021/07/16 03:09:42;;;;;;;5.55;3.55;;;;;;;;;;5013451;28;20117;-64
2021/07/16 03:12:08;;;;;;;7.75;3.65;;;;;;;;;;5013393;28;20029;-64
2021/07/16 03:14:34;;;;;;;7.70;3.90;;;;;;;;;;5013054;28;20026;-64
2021/07/16 03:16:59;;;;;;;4.97;3.65;;;;;;;;;;5013618;28;20037;-64
2021/07/16 03:19:26;;;;;;;5.53;3.58;;;;;;;;;;5013251;28;20515;-64
2021/07/16 03:21:52;;;;;;;7.20;4.03;;;;;;;;;;5013211;28;20474;-62
2021/07/16 03:24:19;;;;;;;11.00;3.80;;;;;;;;;;5028619;28;20025;-64
2021/07/16 03:26:45;;;;;;;11.95;4.07;;;;;;;;;;5013145;28;20024;-64
2021/07/16 03:29:12;;;;;;;8.10;4.15;;;;;;;;;;5013075;28;20022;-64
2021/07/16 03:31:39;;;;;;;4.45;3.72;;;;;;;;;;5012694;28;20042;-64
2021/07/16 03:34:05;;;;;;;9.88;4.03;;;;;;;;;;5013148;28;20106;-63
2021/07/16 03:36:32;;;;;;;7.32;4.53;;;;;;;;;;5012767;28;20125;-63
2021/07/16 03:38:57;;;;;;;6.18;4.38;;;;;;;;;;5012953;28;20025;-63
2021/07/16 03:41:22;;;;;;;6.05;4.53;;;;;;;;;;5012768;28;20018;-64
2021/07/16 03:43:49;;;;;;;6.38;4.07;;;;;;;;;;5012985;28;20029;-63
2021/07/16 03:46:18;;;;;;;14.70;4.65;;;;;;;;;;5012896;28;20653;-64
2021/07/16 03:48:44;;;;;;;5.90;3.55;;;;;;;;;;5013132;28;20032;-63
2021/07/16 03:51:09;;;;;;;5.85;3.60;;;;;;;;;;5013174;28;20104;-64
2021/07/16 03:53:35;;;;;;;8.05;5.35;;;;;;;;;;5013022;28;20026;-63
2021/07/16 03:56:01;;;;;;;9.18;3.97;;;;;;;;;;5012975;28;20080;-64
2021/07/16 03:58:27;;;;;;;6.53;4.38;;;;;;;;;;5012616;28;20349;-63
2021/07/16 04:00:53;;;;;;;7.38;4.80;;;;;;;;;;5012669;28;20083;-63
2021/07/16 04:03:21;;;;;;;7.75;4.50;;;;;;;;;;5012682;28;20390;-63
2021/07/16 04:05:47;;;;;;;6.78;4.28;;;;;;;;;;5012975;28;20025;-64
2021/07/16 04:08:17;;;;;;;10.43;4.45;;;;;;;;;;5012213;28;20494;-63
2021/07/16 04:10:44;;;;;;;8.93;5.07;;;;;;;;;;5012768;28;20104;-63
2021/07/16 04:13:11;;;;;;;14.98;4.80;;;;;;;;;;5012442;28;20026;-64
2021/07/16 04:15:37;;;;;;;9.10;5.63;;;;;;;;;;5012490;28;20022;-63
2021/07/16 04:18:05;;;;;;;9.43;5.30;;;;;;;;;;5012903;28;20374;-63
2021/07/16 04:20:33;;;;;;;10.30;6.13;;;;;;;;;;5027984;28;20022;-64
2021/07/16 04:23:00;;;;;;;9.38;5.97;;;;;;;;;;5012674;28;20097;-64
2021/07/16 04:25:26;;;;;;;12.88;6.22;;;;;;;;;;5012805;28;20018;-64
2021/07/16 04:27:52;;;;;;;8.90;6.57;;;;;;;;;;5012364;28;20550;-65
2021/07/16 04:30:19;;;;;;;8.88;6.78;;;;;;;;;;5012279;28;20022;-64
2021/07/16 04:32:46;;;;;;;8.30;5.97;;;;;;;;;;5012617;28;20030;-64
2021/07/16 04:35:16;;;;;;;7.85;6.70;;;;;;;;;;5012457;28;20022;-64
2021/07/16 04:37:43;;;;;;;10.60;6.68;;;;;;;;;;5012727;28;20429;-64
2021/07/16 04:40:10;;;;;;;15.27;7.22;;;;;;;;;;5012332;28;20026;-64
2021/07/16 04:42:36;;;;;;;11.57;6.00;;;;;;;;;;5011938;28;20026;-64
2021/07/16 04:45:04;;;;;;;10.80;6.68;;;;;;;;;;5014755;28;20030;-63
2021/07/16 04:47:31;;;;;;;10.30;6.32;;;;;;;;;;5016097;28;20510;-64
2021/07/16 04:49:57;;;;;;;11.27;7.45;;;;;;;;;;5016257;28;20033;-63
2021/07/16 04:52:23;;;;;;;14.38;9.13;;;;;;;;;;5015740;28;20017;-64
2021/07/16 04:54:49;;;;;;;15.10;9.13;;;;;;;;;;5015768;28;20026;-63
2021/07/16 04:57:15;;;;;;;13.90;8.90;;;;;;;;;;5015789;28;20022;-64
2021/07/16 04:59:41;;;;;;;15.73;8.95;;;;;;;;;;5016190;28;20030;-63
2021/07/16 05:02:06;;;;;;;18.55;10.60;;;;;;;;;;5015917;28;20413;-63
2021/07/16 05:04:33;;;;;;;15.30;9.90;;;;;;;;;;5015620;28;20101;-63
2021/07/16 05:06:59;;;;;;;18.77;11.13;;;;;;;;;;5015356;28;20042;-64
2021/07/16 05:09:26;;;;;;;15.73;10.52;;;;;;;;;;5014518;28;20378;-63
2021/07/16 05:11:51;;;;;;;19.17;11.48;;;;;;;;;;5015687;28;20022;-63
2021/07/16 05:14:18;;;;;;;16.92;11.80;;;;;;;;;;5015417;28;20404;-63
2021/07/16 05:16:45;;;;;;;19.10;12.00;;;;;;;;;;5015580;28;20120;-62
2021/07/16 05:19:11;;;;;;;18.85;11.93;;;;;;;;;;5015251;28;20032;-64
2021/07/16 05:21:38;;;;;;;23.35;12.63;;;;;;;;;;5024840;28;20026;-60
2021/07/16 05:24:03;;;;;;;17.27;12.38;;;;;;;;;;5027727;28;20010;-57
2021/07/16 05:26:30;;;;;;;20.67;11.40;;;;;;;;;;5023475;28;20116;-64
2021/07/16 05:28:56;;;;;;;22.67;12.05;;;;;;;;;;5015947;28;20033;-64
2021/07/16 05:31:23;;;;;;;20.27;13.05;;;;;;;;;;5015324;28;20176;-63
2021/07/16 05:33:49;;;;;;;23.90;13.82;;;;;;;;;;5015361;28;20025;-64
2021/07/16 05:36:14;;;;;;;18.65;12.82;;;;;;;;;;5014336;28;20034;-70
2021/07/16 05:38:40;;;;;;;18.17;11.30;;;;;;;;;;5015183;28;20026;-71
2021/07/16 05:41:06;;;;;;;15.45;10.88;;;;;;;;;;5015240;28;20026;-72
2021/07/16 05:43:31;;;;;;;26.15;13.88;;;;;;;;;;5015517;28;20026;-73
2021/07/16 05:45:57;;;;;;;17.67;11.95;;;;;;;;;;5014558;28;20659;-67
2021/07/16 05:48:22;;;;;;;19.85;12.00;;;;;;;;;;5013526;28;20536;-67
2021/07/16 05:50:48;;;;;;;20.08;12.90;;;;;;;;;;5015030;28;20068;-68
2021/07/16 05:53:14;;;;;;;18.40;12.20;;;;;;;;;;5020928;28;20018;-66
2021/07/16 05:55:39;;;;;;;21.65;13.88;;;;;;;;;;5021959;28;20049;-68
2021/07/16 05:58:05;;;;;;;17.92;12.65;;;;;;;;;;5031959;28;20381;-66
2021/07/16 06:00:34;;;;;;;17.90;12.40;;;;;;;;;;5028164;28;20548;-70
2021/07/16 06:03:00;;;;;;;24.52;14.63;;;;;;;;;;5022158;28;20500;-69
2021/07/16 06:05:26;;;;;;;29.15;13.38;;;;;;;;;;5025323;28;20025;-70
2021/07/16 06:07:52;;;;;;;25.02;15.32;;;;;;;;;;5029156;28;20050;-65
2021/07/16 06:10:17;;;;;;;20.30;12.43;;;;;;;;;;5016832;28;20347;-67
2021/07/16 06:12:44;;;;;;;17.75;12.00;;;;;;;;;;5023591;28;20026;-70
2021/07/16 06:15:10;;;;;;;18.42;12.25;;;;;;;;;;5008952;28;20026;-62
2021/07/16 06:17:35;;;;;;;25.23;13.05;;;;;;;;;;5015286;28;20041;-62
2021/07/16 06:20:03;;;;;;;27.02;14.75;;;;;;;;;;5017751;28;20394;-64
2021/07/16 06:22:29;;;;;;;21.17;12.93;;;;;;;;;;5022198;28;20049;-65
2021/07/16 06:24:56;;;;;;;21.73;13.48;;;;;;;;;;5016939;28;20120;-65
2021/07/16 06:27:22;;;;;;;16.38;11.48;;;;;;;;;;5033050;28;20508;-63
2021/07/16 06:29:48;;;;;;;22.08;13.13;;;;;;;;;;5030761;28;20031;-60
2021/07/16 06:32:14;;;;;;;21.30;11.13;;;;;;;;;;5030639;28;20029;-62
2021/07/16 06:34:40;;;;;;;14.57;10.25;;;;;;;;;;5028460;28;20040;-66
2021/07/16 06:37:07;;;;;;;14.20;10.10;;;;;;;;;;5020428;28;20494;-64
2021/07/16 06:39:33;;;;;;;12.40;9.95;;;;;;;;;;5024590;28;20028;-63
2021/07/16 06:41:59;;;;;;;102.72;16.60;;;;;;;;;;5022961;28;20096;-71
2021/07/16 06:44:24;;;;;;;14.48;8.77;;;;;;;;;;5026533;28;20018;-63
2021/07/16 06:46:50;;;;;;;15.75;8.48;;;;;;;;;;5020659;28;20040;-68
2021/07/16 06:49:20;;;;;;;15.80;10.63;;;;;;;;;;5029251;28;20018;-67
2021/07/16 06:51:45;;;;;;;17.23;10.38;;;;;;;;;;5026506;28;20018;-63
2021/07/16 06:54:12;;;;;;;31.83;17.05;;;;;;;;;;5015491;28;20101;-63
2021/07/16 06:56:37;;;;;;;14.65;10.88;;;;;;;;;;5017842;28;20037;-63
2021/07/16 06:59:06;;;;;;;14.30;10.48;;;;;;;;;;5020577;28;20026;-65
2021/07/16 07:01:32;;;;;;;26.95;14.57;;;;;;;;;;5020675;28;20021;-67
2021/07/16 07:03:59;;;;;;;34.97;15.93;;;;;;;;;;5011523;23;20146;-66
2021/07/16 07:06:24;;;;;;;82.55;30.88;;;;;;;;;;4994115;28;20065;-65
2021/07/16 07:08:49;;;;;;;17.88;10.60;;;;;;;;;;5008786;28;20057;-63
2021/07/16 07:11:15;;;;;;;19.27;10.88;;;;;;;;;;5012103;28;20022;-62
2021/07/16 07:13:40;;;;;;;52.40;29.50;;;;;;;;;;5013462;28;20106;-68
2021/07/16 07:16:06;;;;;;;17.23;11.63;;;;;;;;;;5012335;28;20390;-67
2021/07/16 07:18:31;;;;;;;19.20;11.43;;;;;;;;;;5009358;28;21085;-68
2021/07/16 07:20:57;;;;;;;14.75;10.02;;;;;;;;;;5013071;28;20022;-65
2021/07/16 07:23:23;;;;;;;16.80;11.35;;;;;;;;;;5013206;28;20021;-65
2021/07/16 07:25:49;;;;;;;15.05;10.38;;;;;;;;;;5013163;28;20014;-68
2021/07/16 07:28:16;;;;;;;16.20;11.25;;;;;;;;;;5012928;28;20164;-70
2021/07/16 07:30:42;;;;;;;16.30;11.82;;;;;;;;;;5012874;28;20097;-69
2021/07/16 07:33:08;;;;;;;17.80;12.32;;;;;;;;;;5013165;28;20037;-72
2021/07/16 07:35:34;;;;;;;16.65;12.38;;;;;;;;;;5012839;28;20067;-71
2021/07/16 07:38:00;;;;;;;14.10;10.70;;;;;;;;;;5013078;28;20022;-73
2021/07/16 07:40:25;;;;;;;17.15;11.27;;;;;;;;;;5012155;28;20022;-65
2021/07/16 07:42:51;;;;;;;17.33;11.02;;;;;;;;;;5012956;28;20026;-72
2021/07/16 07:45:17;;;;;;;11.77;9.43;;;;;;;;;;5010486;28;20054;-69
2021/07/16 07:47:43;;;;;;;16.42;10.48;;;;;;;;;;5013094;28;20058;-66
2021/07/16 07:50:12;;;;;;;16.50;10.18;;;;;;;;;;5013056;28;20113;-66
2021/07/16 07:52:37;;;;;;;14.02;11.00;;;;;;;;;;5012747;28;20076;-65
2021/07/16 07:55:03;;;;;;;15.40;10.52;;;;;;;;;;5008417;28;20018;-65
2021/07/16 07:57:28;;;;;;;16.80;10.13;;;;;;;;;;5013186;28;20050;-70
2021/07/16 07:59:54;;;;;;;16.13;9.10;;;;;;;;;;5014385;28;20060;-70
2021/07/16 08:02:19;;;;;;;12.55;9.38;;;;;;;;;;5001526;28;20018;-67
2021/07/16 08:04:45;;;;;;;12.80;9.65;;;;;;;;;;4992774;28;20015;-67
2021/07/16 08:07:10;;;;;;;12.77;9.00;;;;;;;;;;4992015;28;20026;-67
2021/07/16 08:09:35;;;;;;;15.25;8.52;;;;;;;;;;4991225;28;20034;-67
2021/07/16 08:12:02;;;;;;;12.40;8.95;;;;;;;;;;4991650;28;20109;-68
2021/07/16 08:14:27;;;;;;;9.77;7.95;;;;;;;;;;4984894;28;20025;-64
2021/07/16 08:16:53;;;;;;;17.90;10.00;;;;;;;;;;4990029;28;20030;-63
2021/07/16 08:19:19;;;;;;;12.23;9.50;;;;;;;;;;4995160;28;20105;-63
2021/07/16 08:21:45;;;;;;;14.93;9.10;;;;;;;;;;4995418;28;20467;-71
2021/07/16 08:24:11;;;;;;;16.20;8.30;;;;;;;;;;4995700;28;20134;-65
2021/07/16 08:26:36;;;;;;;11.35;8.77;;;;;;;;;;4994748;28;20026;-66
2021/07/16 08:29:02;;;;;;;14.93;8.60;;;;;;;;;;4987079;28;20026;-66
2021/07/16 08:31:27;;;;;;;14.93;7.97;;;;;;;;;;4994949;28;20046;-64
2021/07/16 08:33:52;;;;;;;18.08;10.00;;;;;;;;;;4995603;28;20375;-69
2021/07/16 08:36:19;;;;;;;14.02;8.93;;;;;;;;;;4996482;28;20490;-68
2021/07/16 08:38:46;;;;;;;16.10;8.18;;;;;;;;;;4995462;28;20045;-67
2021/07/16 08:41:12;;;;;;;14.32;8.15;;;;;;;;;;4996475;28;20121;-65
2021/07/16 08:43:40;;;;;;;15.85;8.43;;;;;;;;;;4996576;28;20478;-65
2021/07/16 08:46:06;;;;;;;15.75;8.30;;;;;;;;;;4993250;28;20033;-70
2021/07/16 08:48:31;;;;;;;11.13;8.77;;;;;;;;;;5005980;28;20034;-76
2021/07/16 08:50:59;;;;;;;11.23;8.60;;;;;;;;;;5020411;28;20022;-76
2021/07/16 08:53:25;;;;;;;11.27;8.93;;;;;;;;;;5020156;28;20029;-70
2021/07/16 08:55:50;;;;;;;11.90;8.10;;;;;;;;;;5014692;28;20034;-74
2021/07/16 08:58:16;;;;;;;14.00;8.40;;;;;;;;;;4996439;28;20535;-75
2021/07/16 09:00:42;;;;;;;17.33;8.13;;;;;;;;;;5000491;28;20022;-63
2021/07/16 09:03:09;;;;;;;16.63;8.75;;;;;;;;;;4995154;28;20072;-65
2021/07/16 09:05:37;;;;;;;18.40;9.18;;;;;;;;;;4995724;28;20015;-64
2021/07/16 09:08:04;;;;;;;11.77;7.93;;;;;;;;;;4996103;28;20057;-64
2021/07/16 09:10:30;;;;;;;11.77;7.95;;;;;;;;;;4995575;28;20019;-65
2021/07/16 09:12:58;;;;;;;12.45;8.63;;;;;;;;;;4988508;28;20093;-64
2021/07/16 09:15:23;;;;;;;11.95;7.97;;;;;;;;;;4982763;28;20034;-68
2021/07/16 09:17:52;;;;;;;14.13;7.97;;;;;;;;;;4994040;28;20105;-66
2021/07/16 09:20:22;;;;;;;14.40;9.05;;;;;;;;;;4994760;28;20084;-68
2021/07/16 09:23:06;;;;;;;10.88;7.03;;;;;;;;;;4994784;28;20018;-69
2021/07/16 09:25:31;;;;;;;13.95;8.27;;;;;;;;;;4995710;28;20081;-71
2021/07/16 09:27:57;;;;;;;16.00;8.25;;;;;;;;;;4995278;28;20678;-62
2021/07/16 09:30:24;;;;;;;11.07;8.10;;;;;;;;;;4994895;28;20466;-63
2021/07/16 09:32:53;;;;;;;10.93;7.40;;;;;;;;;;4995531;28;20077;-62
2021/07/16 09:35:33;;;;;;;10.13;8.10;;;;;;;;;;4995077;28;20014;-66
2021/07/16 09:37:59;;;;;;;14.60;8.23;;;;;;;;;;4995205;28;20026;-62
2021/07/16 09:40:31;;;;;;;12.55;7.65;;;;;;;;;;4995178;28;20034;-62
2021/07/16 09:42:59;;;;;;;11.05;7.80;;;;;;;;;;4993927;28;20034;-65
2021/07/16 09:45:25;;;;;;;16.77;8.15;;;;;;;;;;4995320;28;20077;-65
2021/07/16 09:47:50;;;;;;;15.20;7.82;;;;;;;;;;4994836;28;20490;-66
2021/07/16 09:50:20;;;;;;;12.35;7.40;;;;;;;;;;4994932;28;20030;-66
2021/07/16 09:52:47;;;;;;;9.13;7.05;;;;;;;;;;4995215;28;20026;-66
2021/07/16 09:55:18;;;;;;;9.40;8.02;;;;;;;;;;4994827;28;20121;-64
2021/07/16 09:57:47;;;;;;;13.68;7.85;;;;;;;;;;4994698;28;20503;-65
2021/07/16 10:00:17;;;;;;;12.93;6.60;;;;;;;;;;4993876;28;20019;-64
2021/07/16 10:02:47;;;;;;;9.77;6.78;;;;;;;;;;4994385;28;20050;-65
2021/07/16 10:05:13;;;;;;;13.05;7.32;;;;;;;;;;4992659;28;20018;-64
2021/07/16 10:07:41;;;;;;;55.20;10.43;;;;;;;;;;4993067;28;20041;-64
2021/07/16 10:10:06;;;;;;;16.97;7.20;;;;;;;;;;4995624;28;20030;-65
2021/07/16 10:12:34;;;;;;;16.63;6.80;;;;;;;;;;4994461;28;20026;-64
2021/07/16 10:14:59;;;;;;;10.43;6.60;;;;;;;;;;4993942;28;20101;-66
2021/07/16 10:17:25;;;;;;;11.77;6.43;;;;;;;;;;4994475;28;20558;-64
2021/07/16 10:19:50;;;;;;;10.23;6.78;;;;;;;;;;4994843;28;20026;-64
2021/07/16 10:22:17;;;;;;;21.17;6.95;;;;;;;;;;4994542;28;20058;-65
2021/07/16 10:24:43;;;;;;;12.35;7.10;;;;;;;;;;4994649;28;20014;-65
2021/07/16 10:27:09;;;;;;;11.77;6.47;;;;;;;;;;4994955;28;20018;-65
2021/07/16 10:29:45;;;;;;;13.93;6.50;;;;;;;;;;4993350;28;20018;-65
2021/07/16 10:32:11;;;;;;;16.77;6.88;;;;;;;;;;4993375;28;20033;-65
2021/07/16 10:34:38;;;;;;;14.55;6.68;;;;;;;;;;4992523;28;20025;-66
2021/07/16 10:37:06;;;;;;;15.48;6.93;;;;;;;;;;4993806;28;20030;-64
2021/07/16 10:39:51;;;;;;;10.88;6.28;;;;;;;;;;4993556;28;20032;-65
2021/07/16 10:42:36;;;;;;;11.35;6.80;;;;;;;;;;4985684;28;20062;-67
2021/07/16 10:45:04;;;;;;;11.25;7.13;;;;;;;;;;4992745;28;20487;-67
2021/07/16 10:47:43;;;;;;;12.30;6.88;;;;;;;;;;4992635;28;20031;-65
2021/07/16 10:50:10;;;;;;;15.48;7.00;;;;;;;;;;4991744;28;20030;-65
2021/07/16 10:52:43;;;;;;;19.53;6.47;;;;;;;;;;4991369;28;20137;-65
2021/07/16 10:55:09;;;;;;;10.68;5.90;;;;;;;;;;4987528;28;20036;-65
2021/07/16 10:57:39;;;;;;;22.27;7.20;;;;;;;;;;4992390;28;20093;-66
2021/07/16 11:00:05;;;;;;;25.67;7.40;;;;;;;;;;4993455;28;20022;-66
2021/07/16 11:02:44;;;;;;;40.72;7.82;;;;;;;;;;4991226;28;20049;-65
2021/07/16 11:05:29;;;;;;;21.83;5.65;;;;;;;;;;4992400;28;20026;-66
2021/07/16 11:07:54;;;;;;;18.70;5.75;;;;;;;;;;4992531;28;20050;-63
2021/07/16 11:10:38;;;;;;;16.15;6.57;;;;;;;;;;4992131;28;20471;-65
2021/07/16 11:13:22;;;;;;;9.68;5.70;;;;;;;;;;4984506;28;20033;-64
2021/07/16 11:15:47;;;;;;;9.82;5.30;;;;;;;;;;4992819;28;20026;-64
2021/07/16 11:18:26;;;;;;;6.72;5.30;;;;;;;;;;4992341;28;20154;-65
2021/07/16 11:20:52;;;;;;;7.93;5.25;;;;;;;;;;4992451;28;20036;-65
2021/07/16 11:23:19;;;;;;;8.90;5.20;;;;;;;;;;4992592;28;20018;-65
2021/07/16 11:25:46;;;;;;;11.00;5.10;;;;;;;;;;4988986;28;20109;-64
2021/07/16 11:28:11;;;;;;;12.15;5.38;;;;;;;;;;4987614;28;20038;-66
2021/07/16 11:30:37;;;;;;;9.88;4.35;;;;;;;;;;4983641;28;20027;-65
2021/07/16 11:33:04;;;;;;;10.63;4.70;;;;;;;;;;4991516;28;20503;-65
2021/07/16 11:35:30;;;;;;;9.75;5.28;;;;;;;;;;4991555;28;20061;-65
2021/07/16 11:37:55;;;;;;;8.18;4.82;;;;;;;;;;4992231;28;20499;-66
2021/07/16 11:40:25;;;;;;;12.55;5.50;;;;;;;;;;4991556;28;20252;-65
2021/07/16 11:42:52;;;;;;;14.43;4.72;;;;;;;;;;4991987;28;20034;-65
2021/07/16 11:45:19;;;;;;;10.75;4.97;;;;;;;;;;4992278;28;20045;-66
2021/07/16 11:47:45;;;;;;;8.25;4.10;;;;;;;;;;4991146;28;20052;-65
2021/07/16 11:50:12;;;;;;;8.18;4.18;;;;;;;;;;4993030;28;20057;-66
2021/07/16 11:52:39;;;;;;;9.77;4.20;;;;;;;;;;4992322;28;20446;-65
2021/07/16 11:55:13;;;;;;;13.75;4.35;;;;;;;;;;4992127;28;20383;-64
2021/07/16 11:57:47;;;;;;;8.23;4.38;;;;;;;;;;4992567;28;20019;-64
2021/07/16 12:00:13;;;;;;;10.65;4.53;;;;;;;;;;4992180;28;20030;-66
2021/07/16 12:02:38;;;;;;;11.43;4.35;;;;;;;;;;4991645;28;20058;-65
2021/07/16 12:05:04;;;;;;;6.82;4.13;;;;;;;;;;4991419;28;20031;-64
2021/07/16 12:07:37;;;;;;;8.90;4.15;;;;;;;;;;4992097;28;20042;-65
2021/07/16 12:10:10;;;;;;;14.10;4.25;;;;;;;;;;4991055;28;20034;-65
2021/07/16 12:12:37;;;;;;;10.60;3.70;;;;;;;;;;4990876;28;20018;-67
2021/07/16 12:15:05;;;;;;;12.77;4.35;;;;;;;;;;4990634;28;20429;-64
2021/07/16 12:17:34;;;;;;;8.95;3.47;;;;;;;;;;4991096;28;20390;-65
2021/07/16 12:20:00;;;;;;;8.23;4.05;;;;;;;;;;4991689;28;20033;-66
2021/07/16 12:22:27;;;;;;;6.90;3.97;;;;;;;;;;4987098;28;20031;-66
2021/07/16 12:24:53;;;;;;;12.35;4.20;;;;;;;;;;4990942;28;20032;-67
2021/07/16 12:27:20;;;;;;;14.25;4.75;;;;;;;;;;4992531;28;20383;-66
2021/07/16 12:29:54;;;;;;;41.25;6.55;;;;;;;;;;4991083;28;20019;-66
2021/07/16 12:32:30;;;;;;;8.40;4.78;;;;;;;;;;4991828;28;20224;-68
2021/07/16 12:34:56;;;;;;;10.68;4.65;;;;;;;;;;4991820;28;20405;-67
2021/07/16 12:37:22;;;;;;;12.35;4.45;;;;;;;;;;4991499;28;20114;-66
2021/07/16 12:40:00;;;;;;;12.70;4.30;;;;;;;;;;4991841;28;20403;-65
2021/07/16 12:42:26;;;;;;;10.55;4.65;;;;;;;;;;4991975;28;20375;-67
2021/07/16 12:45:05;;;;;;;13.02;4.60;;;;;;;;;;4991941;28;20558;-65
2021/07/16 12:47:32;;;;;;;8.80;4.35;;;;;;;;;;4991087;28;20044;-67
2021/07/16 12:50:06;;;;;;;10.95;4.70;;;;;;;;;;4990150;28;20030;-65
2021/07/16 12:52:32;;;;;;;8.98;4.50;;;;;;;;;;4991405;28;20035;-65
2021/07/16 12:55:11;;;;;;;13.35;4.57;;;;;;;;;;4991539;28;20113;-68
2021/07/16 12:57:37;;;;;;;;;;;;;;;;;;4992986;28;20033;-65
2021/07/16 13:00:11;;;;;;;10.93;4.60;;;;;;;;;;4992386;28;19905;-66
2021/07/16 13:02:36;;;;;;;8.70;4.10;;;;;;;;;;4995266;28;20041;-65
2021/07/16 13:05:02;;;;;;;13.45;4.57;;;;;;;;;;4995304;28;20022;-68
2021/07/16 13:07:28;;;;;;;11.23;4.72;;;;;;;;;;4995052;28;20068;-67
2021/07/16 13:09:54;;;;;;;8.52;4.65;;;;;;;;;;4997087;28;20475;-65
2021/07/16 13:12:20;;;;;;;8.73;4.35;;;;;;;;;;4996279;28;20062;-67
2021/07/16 13:14:57;;;;;;;8.35;4.68;;;;;;;;;;4996569;28;20542;-66
2021/07/16 13:17:41;;;;;;;8.70;4.53;;;;;;;;;;4995403;28;20120;-66
2021/07/16 13:20:08;;;;;;;6.60;4.28;;;;;;;;;;4995530;28;20022;-64
2021/07/16 13:22:35;;;;;;;10.93;4.22;;;;;;;;;;4996474;28;20030;-63
2021/07/16 13:25:02;;;;;;;6.13;3.65;;;;;;;;;;4996692;28;20069;-65
2021/07/16 13:27:28;;;;;;;10.48;4.13;;;;;;;;;;4995966;28;20093;-63
2021/07/16 13:29:54;;;;;;;6.53;3.85;;;;;;;;;;4995902;28;20037;-64
2021/07/16 13:32:21;;;;;;;9.25;3.92;;;;;;;;;;4995740;28;20027;-65
2021/07/16 13:34:46;;;;;;;9.10;3.65;;;;;;;;;;4993731;28;20474;-67
2021/07/16 13:37:13;;;;;;;7.13;4.47;;;;;;;;;;4995032;28;20061;-66
2021/07/16 13:39:38;;;;;;;12.38;4.20;;;;;;;;;;4995323;28;20483;-65
2021/07/16 13:42:05;;;;;;;8.77;4.35;;;;;;;;;;4995580;28;20037;-66
2021/07/16 13:44:31;;;;;;;8.98;4.60;;;;;;;;;;4995389;28;20022;-65
2021/07/16 13:46:57;;;;;;;7.82;3.22;;;;;;;;;;4995259;28;20109;-66
2021/07/16 13:49:23;;;;;;;7.97;3.90;;;;;;;;;;4995364;28;20026;-66
2021/07/16 13:51:48;;;;;;;6.68;4.10;;;;;;;;;;4995423;28;20026;-66
2021/07/16 13:54:14;;;;;;;8.40;3.45;;;;;;;;;;4995541;28;20015;-66
2021/07/16 13:56:40;;;;;;;8.07;3.78;;;;;;;;;;4994936;28;20030;-66
2021/07/16 13:59:06;;;;;;;9.70;4.15;;;;;;;;;;4995552;28;20018;-66
2021/07/16 14:01:32;;;;;;;6.43;4.00;;;;;;;;;;4995400;28;20524;-66
2021/07/16 14:03:58;;;;;;;7.82;4.40;;;;;;;;;;4994661;28;20054;-66
2021/07/16 14:06:24;;;;;;;5.93;3.80;;;;;;;;;;4993884;28;20057;-67
2021/07/16 14:08:51;;;;;;;10.35;4.22;;;;;;;;;;4994959;28;20030;-67
2021/07/16 14:11:17;;;;;;;8.43;3.60;;;;;;;;;;4994892;28;20467;-66
2021/07/16 14:13:42;;;;;;;7.28;4.18;;;;;;;;;;4995164;28;20022;-66
2021/07/16 14:16:08;;;;;;;14.95;4.43;;;;;;;;;;4995008;28;20360;-67
2021/07/16 14:18:34;;;;;;;6.43;4.28;;;;;;;;;;4993770;28;20454;-67
2021/07/16 14:21:00;;;;;;;9.88;4.03;;;;;;;;;;4994633;28;20475;-66
2021/07/16 14:23:26;;;;;;;8.15;4.15;;;;;;;;;;4994924;28;20018;-67
2021/07/16 14:25:52;;;;;;;9.65;3.95;;;;;;;;;;4994819;28;20055;-67
2021/07/16 14:28:21;;;;;;;12.35;4.75;;;;;;;;;;4994879;28;20419;-67
2021/07/16 14:30:49;;;;;;;;;;;;;;;;;;4994281;28;20022;-67
2021/07/16 14:33:15;;;;;;;10.93;5.60;;;;;;;;;;4994705;28;19910;-67